createdAt,value
2022-08-08T00:00:59.060Z,0
2022-08-08T00:02:08.212Z,0
2022-08-08T00:03:17.393Z,0
2022-08-08T00:04:26.558Z,0
2022-08-08T00:05:35.736Z,0
2022-08-08T00:06:44.935Z,0
2022-08-08T00:07:54.089Z,0
2022-08-08T00:09:03.248Z,0
2022-08-08T00:10:12.427Z,0
2022-08-08T00:11:21.600Z,0
2022-08-08T00:12:30.768Z,0
2022-08-08T00:13:38.984Z,0
2022-08-08T00:15:57.302Z,0
2022-08-08T00:17:06.481Z,0
2022-08-08T00:18:15.656Z,0
2022-08-08T00:19:24.825Z,0
2022-08-08T00:20:34.006Z,0
2022-08-08T00:21:43.168Z,0
2022-08-08T00:22:52.336Z,0
2022-08-08T00:24:01.503Z,0
2022-08-08T00:25:10.681Z,0
2022-08-08T00:26:19.856Z,0
2022-08-08T00:27:29.039Z,0
2022-08-08T00:28:37.218Z,0
2022-08-08T00:29:46.398Z,0
2022-08-08T00:30:55.568Z,0
2022-08-08T00:32:04.745Z,0
2022-08-08T00:33:13.910Z,0
2022-08-08T00:34:23.082Z,0
2022-08-08T00:35:32.261Z,0
2022-08-08T00:36:41.459Z,0
2022-08-08T00:37:50.598Z,0
2022-08-08T00:38:59.764Z,0
2022-08-08T00:40:08.948Z,0
2022-08-08T00:41:18.136Z,0
2022-08-08T00:42:27.285Z,0
2022-08-08T00:43:35.467Z,0
2022-08-08T00:44:44.647Z,0
2022-08-08T00:45:53.831Z,0
2022-08-08T00:47:02.981Z,0
2022-08-08T00:48:12.161Z,0
2022-08-08T00:49:21.321Z,0
2022-08-08T00:50:30.503Z,0
2022-08-08T00:51:39.687Z,0
2022-08-08T00:52:48.855Z,0
2022-08-08T00:53:58.015Z,0
2022-08-08T00:55:07.201Z,0
2022-08-08T00:56:16.370Z,0
2022-08-08T00:57:25.549Z,0
2022-08-08T00:58:33.721Z,0
2022-08-08T00:59:42.901Z,0
2022-08-08T01:00:52.070Z,0
2022-08-08T01:02:01.245Z,0
2022-08-08T01:03:10.450Z,0
2022-08-08T01:04:19.594Z,0
2022-08-08T01:05:28.767Z,0
2022-08-08T01:06:37.938Z,0
2022-08-08T01:07:47.116Z,0
2022-08-08T01:08:56.290Z,0
2022-08-08T01:10:05.463Z,0
2022-08-08T01:11:14.623Z,0
2022-08-08T01:12:23.810Z,0
2022-08-08T01:13:31.990Z,0
2022-08-08T01:14:41.162Z,0
2022-08-08T01:15:50.332Z,0
2022-08-08T01:16:59.531Z,0
2022-08-08T01:18:08.680Z,0
2022-08-08T01:19:17.862Z,0
2022-08-08T01:20:27.022Z,0
2022-08-08T01:21:36.194Z,0
2022-08-08T01:22:45.373Z,0
2022-08-08T01:23:54.552Z,0
2022-08-08T01:25:03.730Z,0
2022-08-08T01:26:12.894Z,0
2022-08-08T01:27:22.070Z,0
2022-08-08T01:28:30.261Z,0
2022-08-08T01:29:39.430Z,0
2022-08-08T01:30:48.603Z,0
2022-08-08T01:31:57.771Z,0
2022-08-08T01:33:06.946Z,0
2022-08-08T01:34:16.120Z,0
2022-08-08T01:35:25.282Z,0
2022-08-08T01:36:34.465Z,0
2022-08-08T01:37:43.637Z,0
2022-08-08T01:38:52.806Z,0
2022-08-08T01:40:01.990Z,0
2022-08-08T01:41:11.165Z,0
2022-08-08T01:42:20.329Z,0
2022-08-08T01:43:28.527Z,0
2022-08-08T01:44:37.694Z,0
2022-08-08T01:45:46.860Z,0
2022-08-08T01:46:56.050Z,0
2022-08-08T01:48:05.216Z,0
2022-08-08T01:49:14.390Z,0
2022-08-08T01:50:23.556Z,0
2022-08-08T01:51:32.726Z,0
2022-08-08T01:52:41.905Z,0
2022-08-08T01:53:51.089Z,0
2022-08-08T01:55:00.253Z,0
2022-08-08T01:56:09.416Z,0
2022-08-08T01:57:18.593Z,0
2022-08-08T01:58:26.785Z,0
2022-08-08T01:59:35.959Z,0
2022-08-08T02:00:45.130Z,0
2022-08-08T02:01:54.308Z,0
2022-08-08T02:03:03.474Z,0
2022-08-08T02:04:12.637Z,0
2022-08-08T02:05:21.822Z,0
2022-08-08T02:06:30.995Z,0
2022-08-08T02:07:40.169Z,0
2022-08-08T02:08:49.354Z,0
2022-08-08T02:09:58.501Z,0
2022-08-08T02:11:07.679Z,0
2022-08-08T02:12:16.853Z,0
2022-08-08T02:13:25.041Z,0
2022-08-08T02:14:34.236Z,0
2022-08-08T02:15:43.401Z,0
2022-08-08T02:16:52.563Z,0
2022-08-08T02:18:01.743Z,0
2022-08-08T02:19:10.896Z,0
2022-08-08T02:20:20.075Z,0
2022-08-08T02:21:29.267Z,0
2022-08-08T02:22:38.432Z,0
2022-08-08T02:23:47.595Z,0
2022-08-08T02:24:56.771Z,0
2022-08-08T02:26:05.959Z,0
2022-08-08T02:27:15.121Z,0
2022-08-08T02:28:23.310Z,0
2022-08-08T02:29:31.503Z,0
2022-08-08T02:30:39.696Z,0
2022-08-08T02:31:47.887Z,0
2022-08-08T02:32:57.069Z,0
2022-08-08T02:34:06.229Z,0
2022-08-08T02:35:15.404Z,0
2022-08-08T02:36:24.581Z,0
2022-08-08T02:37:33.743Z,0
2022-08-08T02:38:42.925Z,0
2022-08-08T02:39:52.098Z,0
2022-08-08T02:41:01.273Z,0
2022-08-08T02:42:10.441Z,0
2022-08-08T02:43:19.603Z,0
2022-08-08T02:44:28.778Z,0
2022-08-08T02:45:37.964Z,0
2022-08-08T02:46:46.162Z,0
2022-08-08T02:47:55.326Z,0
2022-08-08T02:49:04.492Z,0
2022-08-08T02:50:13.672Z,0
2022-08-08T02:51:22.839Z,0
2022-08-08T02:52:32.015Z,0
2022-08-08T02:53:41.193Z,0
2022-08-08T02:54:50.356Z,0
2022-08-08T02:55:59.533Z,0
2022-08-08T02:57:08.700Z,0
2022-08-08T02:58:17.868Z,0
2022-08-08T02:59:27.047Z,0
2022-08-08T03:00:36.218Z,0
2022-08-08T03:01:44.414Z,0
2022-08-08T03:02:53.579Z,0
2022-08-08T03:04:02.755Z,0
2022-08-08T03:05:11.928Z,0
2022-08-08T03:06:21.111Z,0
2022-08-08T03:07:30.275Z,0
2022-08-08T03:08:39.441Z,0
2022-08-08T03:09:48.621Z,0
2022-08-08T03:10:57.800Z,0
2022-08-08T03:12:06.959Z,0
2022-08-08T03:13:16.139Z,0
2022-08-08T03:14:25.306Z,0
2022-08-08T03:15:34.481Z,0
2022-08-08T03:16:42.687Z,0
2022-08-08T03:17:51.847Z,0
2022-08-08T03:19:01.016Z,0
2022-08-08T03:20:10.189Z,0
2022-08-08T03:21:19.363Z,0
2022-08-08T03:22:28.542Z,3
2022-08-08T03:23:37.714Z,3
2022-08-08T03:24:46.878Z,3
2022-08-08T03:25:56.048Z,4
2022-08-08T03:27:05.219Z,0
2022-08-08T03:28:14.392Z,0
2022-08-08T03:29:23.569Z,4
2022-08-08T03:30:32.737Z,4
2022-08-08T03:31:40.929Z,9
2022-08-08T03:32:50.099Z,1
2022-08-08T03:33:59.281Z,5
2022-08-08T03:35:08.457Z,1
2022-08-08T03:36:17.625Z,3
2022-08-08T03:37:26.798Z,3
2022-08-08T03:38:35.967Z,6
2022-08-08T03:39:45.136Z,14
2022-08-08T03:40:54.330Z,19
2022-08-08T03:42:03.489Z,28
2022-08-08T03:43:12.651Z,16
2022-08-08T03:44:21.842Z,12
2022-08-08T03:45:31.004Z,9
2022-08-08T03:46:39.196Z,26
2022-08-08T03:47:48.370Z,23
2022-08-08T03:48:57.539Z,24
2022-08-08T03:50:05.747Z,34
2022-08-08T03:51:14.909Z,35
2022-08-08T03:52:24.076Z,49
2022-08-08T03:53:33.250Z,55
2022-08-08T03:54:41.455Z,61
2022-08-08T03:55:50.643Z,75
2022-08-08T03:56:58.806Z,98
2022-08-08T03:58:06.993Z,100
2022-08-08T03:59:15.199Z,123
2022-08-08T04:00:24.374Z,138
2022-08-08T04:01:33.539Z,152
2022-08-08T04:02:42.704Z,175
2022-08-08T04:03:51.874Z,203
2022-08-08T04:05:01.059Z,227
2022-08-08T04:06:10.232Z,243
2022-08-08T04:07:19.408Z,267
2022-08-08T04:08:28.571Z,299
2022-08-08T04:09:37.737Z,332
2022-08-08T04:10:46.912Z,365
2022-08-08T04:11:56.098Z,402
2022-08-08T04:13:05.263Z,444
2022-08-08T04:14:13.446Z,482
2022-08-08T04:15:22.638Z,498
2022-08-08T04:16:31.811Z,566
2022-08-08T04:17:40.970Z,603
2022-08-08T04:18:50.139Z,632
2022-08-08T04:19:59.327Z,674
2022-08-08T04:21:08.494Z,720
2022-08-08T04:22:17.664Z,749
2022-08-08T04:23:26.847Z,803
2022-08-08T04:24:36.007Z,854
2022-08-08T04:25:45.178Z,887
2022-08-08T04:26:54.358Z,916
2022-08-08T04:28:03.520Z,942
2022-08-08T04:29:11.711Z,976
2022-08-08T04:30:20.895Z,993
2022-08-08T04:31:30.054Z,1020
2022-08-08T04:32:39.237Z,1058
2022-08-08T04:33:48.418Z,1084
2022-08-08T04:34:57.572Z,1111
2022-08-08T04:36:06.749Z,1138
2022-08-08T04:37:15.930Z,1114
2022-08-08T04:38:25.088Z,1409
2022-08-08T04:39:34.271Z,1237
2022-08-08T04:40:43.468Z,1276
2022-08-08T04:41:52.633Z,1332
2022-08-08T04:43:01.791Z,1333
2022-08-08T04:44:09.975Z,1389
2022-08-08T04:45:19.148Z,1431
2022-08-08T04:46:28.337Z,1442
2022-08-08T04:47:37.500Z,1482
2022-08-08T04:48:46.661Z,1506
2022-08-08T04:49:55.858Z,1581
2022-08-08T04:51:05.027Z,1612
2022-08-08T04:52:14.178Z,1630
2022-08-08T04:53:23.380Z,1640
2022-08-08T04:54:32.536Z,1678
2022-08-08T04:55:41.703Z,1661
2022-08-08T04:56:50.891Z,1648
2022-08-08T04:58:00.101Z,1684
2022-08-08T04:59:08.250Z,1685
2022-08-08T05:00:17.419Z,1694
2022-08-08T05:01:26.587Z,1691
2022-08-08T05:02:35.758Z,1686
2022-08-08T05:03:44.928Z,1665
2022-08-08T05:04:54.092Z,1691
2022-08-08T05:06:03.269Z,1742
2022-08-08T05:07:12.457Z,1784
2022-08-08T05:08:21.620Z,1813
2022-08-08T05:09:30.804Z,1801
2022-08-08T05:10:39.961Z,1814
2022-08-08T05:11:49.149Z,1809
2022-08-08T05:12:58.303Z,1861
2022-08-08T05:14:06.501Z,1916
2022-08-08T05:15:15.664Z,1935
2022-08-08T05:16:24.835Z,2028
2022-08-08T05:17:34.036Z,1904
2022-08-08T05:18:43.195Z,2049
2022-08-08T05:19:52.376Z,2085
2022-08-08T05:21:01.534Z,2158
2022-08-08T05:22:10.727Z,2135
2022-08-08T05:23:19.881Z,2166
2022-08-08T05:24:29.053Z,2196
2022-08-08T05:25:38.214Z,2164
2022-08-08T05:26:47.400Z,2221
2022-08-08T05:27:56.574Z,2272
2022-08-08T05:29:04.775Z,2230
2022-08-08T05:30:13.921Z,2294
2022-08-08T05:31:23.109Z,2355
2022-08-08T05:32:32.269Z,2408
2022-08-08T05:34:50.623Z,2435
2022-08-08T05:35:59.791Z,2450
2022-08-08T05:37:08.957Z,2506
2022-08-08T05:38:18.136Z,2551
2022-08-08T05:39:27.306Z,2573
2022-08-08T05:40:36.487Z,2621
2022-08-08T05:41:45.658Z,2660
2022-08-08T05:42:54.831Z,2681
2022-08-08T05:44:03.018Z,2682
2022-08-08T05:45:12.186Z,2734
2022-08-08T05:46:21.362Z,2785
2022-08-08T05:47:30.525Z,2760
2022-08-08T05:48:39.703Z,2823
2022-08-08T05:49:48.888Z,2828
2022-08-08T05:52:07.220Z,2863
2022-08-08T05:54:25.572Z,2959
2022-08-08T05:55:33.768Z,2924
2022-08-08T05:56:41.943Z,2952
2022-08-08T05:57:51.122Z,3009
2022-08-08T05:59:00.288Z,3038
2022-08-08T06:00:09.472Z,3050
2022-08-08T06:01:18.638Z,3092
2022-08-08T06:02:27.810Z,3074
2022-08-08T06:03:36.983Z,3078
2022-08-08T06:04:46.151Z,3045
2022-08-08T06:05:55.333Z,3292
2022-08-08T06:07:04.501Z,3166
2022-08-08T06:08:12.694Z,3209
2022-08-08T06:09:20.883Z,3254
2022-08-08T06:10:30.068Z,3222
2022-08-08T06:11:39.214Z,3300
2022-08-08T06:12:48.409Z,3343
2022-08-08T06:13:57.566Z,3341
2022-08-08T06:15:06.749Z,3343
2022-08-08T06:16:15.920Z,3363
2022-08-08T06:18:34.253Z,3357
2022-08-08T06:19:43.429Z,3417
2022-08-08T06:20:52.603Z,3426
2022-08-08T06:22:01.776Z,3412
2022-08-08T06:23:10.941Z,3372
2022-08-08T06:24:19.142Z,3452
2022-08-08T06:25:28.298Z,3446
2022-08-08T06:26:37.489Z,3490
2022-08-08T06:27:46.646Z,3492
2022-08-08T06:28:55.825Z,3527
2022-08-08T06:30:05.028Z,3498
2022-08-08T06:31:14.167Z,3552
2022-08-08T06:32:23.333Z,3546
2022-08-08T06:33:32.508Z,3556
2022-08-08T06:35:50.848Z,3570
2022-08-08T06:37:00.068Z,3620
2022-08-08T06:38:09.196Z,3636
2022-08-08T06:39:17.407Z,3635
2022-08-08T06:40:26.566Z,3651
2022-08-08T06:41:35.733Z,3674
2022-08-08T06:42:44.912Z,3629
2022-08-08T06:43:54.081Z,3701
2022-08-08T06:45:03.269Z,3610
2022-08-08T06:46:12.427Z,4215
2022-08-08T06:47:20.616Z,4076
2022-08-08T06:48:28.804Z,2803
2022-08-08T06:49:37.982Z,3856
2022-08-08T06:50:47.152Z,3770
2022-08-08T06:51:56.326Z,3749
2022-08-08T06:53:05.488Z,3991
2022-08-08T06:54:14.671Z,3715
2022-08-08T06:55:23.853Z,3871
2022-08-08T06:56:33.006Z,3882
2022-08-08T06:57:42.198Z,3926
2022-08-08T06:58:51.368Z,3896
2022-08-08T07:00:00.545Z,3948
2022-08-08T07:01:09.711Z,3946
2022-08-08T07:02:18.868Z,3138
2022-08-08T07:03:27.065Z,6620
2022-08-08T07:04:36.240Z,3957
2022-08-08T07:05:45.442Z,3960
2022-08-08T07:06:54.586Z,4003
2022-08-08T07:08:03.756Z,3961
2022-08-08T07:09:12.924Z,4043
2022-08-08T07:10:22.114Z,4028
2022-08-08T07:11:31.288Z,4067
2022-08-08T07:12:39.468Z,3980
2022-08-08T07:13:47.641Z,4162
2022-08-08T07:14:56.829Z,4178
2022-08-08T07:16:06.003Z,4135
2022-08-08T07:17:15.177Z,4202
2022-08-08T07:18:24.355Z,4279
2022-08-08T07:19:33.505Z,4240
2022-08-08T07:20:42.680Z,4272
2022-08-08T07:21:51.871Z,4276
2022-08-08T07:23:01.029Z,4289
2022-08-08T07:24:10.200Z,4295
2022-08-08T07:25:19.367Z,4325
2022-08-08T07:26:28.546Z,4361
2022-08-08T07:27:37.713Z,4321
2022-08-08T07:28:45.921Z,4299
2022-08-08T07:29:55.078Z,4338
2022-08-08T07:31:04.247Z,4356
2022-08-08T07:32:13.430Z,4379
2022-08-08T07:33:22.600Z,4362
2022-08-08T07:34:31.780Z,4361
2022-08-08T07:35:40.943Z,4396
2022-08-08T07:36:50.125Z,4423
2022-08-08T07:37:59.283Z,4420
2022-08-08T07:39:08.478Z,4435
2022-08-08T07:40:17.631Z,4278
2022-08-08T07:41:25.831Z,4863
2022-08-08T07:42:35.011Z,4482
2022-08-08T07:43:44.168Z,4531
2022-08-08T07:44:53.345Z,4556
2022-08-08T07:46:02.518Z,4544
2022-08-08T07:47:11.695Z,4446
2022-08-08T07:48:20.874Z,5056
2022-08-08T07:49:30.045Z,5101
2022-08-08T07:50:39.202Z,5205
2022-08-08T07:52:57.553Z,5170
2022-08-08T07:54:06.736Z,5241
2022-08-08T07:55:15.890Z,5101
2022-08-08T07:56:24.088Z,5061
2022-08-08T07:57:33.259Z,5100
2022-08-08T07:58:42.422Z,5231
2022-08-08T07:59:51.611Z,5305
2022-08-08T08:01:00.783Z,5194
2022-08-08T08:02:09.943Z,5181
2022-08-08T08:03:19.116Z,5554
2022-08-08T08:04:28.295Z,5362
2022-08-08T08:05:37.461Z,5203
2022-08-08T08:06:46.633Z,5298
2022-08-08T08:07:55.814Z,5314
2022-08-08T08:09:04.986Z,5392
2022-08-08T08:10:14.150Z,5309
2022-08-08T08:11:22.343Z,5518
2022-08-08T08:12:31.513Z,5337
2022-08-08T08:13:40.682Z,5308
2022-08-08T08:14:49.880Z,5345
2022-08-08T08:15:59.024Z,5319
2022-08-08T08:17:08.191Z,5255
2022-08-08T08:18:17.364Z,5222
2022-08-08T08:19:26.545Z,5330
2022-08-08T08:20:35.716Z,5346
2022-08-08T08:21:44.908Z,5315
2022-08-08T08:22:54.057Z,5335
2022-08-08T08:24:03.243Z,5273
2022-08-08T08:25:12.404Z,5529
2022-08-08T08:26:21.574Z,5697
2022-08-08T08:27:29.766Z,5561
2022-08-08T08:28:38.938Z,5525
2022-08-08T08:29:48.114Z,5443
2022-08-08T08:30:57.277Z,5481
2022-08-08T08:32:06.465Z,5574
2022-08-08T08:33:15.643Z,5620
2022-08-08T08:34:24.804Z,5641
2022-08-08T08:35:33.977Z,5612
2022-08-08T08:36:43.137Z,5653
2022-08-08T08:37:52.321Z,5517
2022-08-08T08:39:01.488Z,5661
2022-08-08T08:40:10.665Z,5626
2022-08-08T08:41:19.850Z,5608
2022-08-08T08:42:28.035Z,5670
2022-08-08T08:43:37.190Z,5751
2022-08-08T08:44:46.375Z,5677
2022-08-08T08:45:55.547Z,5838
2022-08-08T08:47:04.714Z,5812
2022-08-08T08:48:13.901Z,5672
2022-08-08T08:50:32.224Z,5670
2022-08-08T08:51:41.412Z,5693
2022-08-08T08:52:50.585Z,5737
2022-08-08T08:53:59.742Z,5728
2022-08-08T08:55:08.934Z,5770
2022-08-08T08:56:18.096Z,5846
2022-08-08T08:57:26.292Z,5760
2022-08-08T08:58:35.471Z,5912
2022-08-08T08:59:44.631Z,5871
2022-08-08T09:00:53.804Z,5978
2022-08-08T09:02:02.970Z,6021
2022-08-08T09:03:12.142Z,5885
2022-08-08T09:04:21.307Z,5984
2022-08-08T09:05:30.489Z,5865
2022-08-08T09:06:39.658Z,5921
2022-08-08T09:07:48.831Z,5958
2022-08-08T09:08:58.009Z,6022
2022-08-08T09:10:07.184Z,6309
2022-08-08T09:11:16.356Z,6091
2022-08-08T09:12:25.522Z,6348
2022-08-08T09:13:33.700Z,5746
2022-08-08T09:14:42.885Z,5972
2022-08-08T09:15:52.082Z,5401
2022-08-08T09:17:01.238Z,5859
2022-08-08T09:18:10.405Z,6016
2022-08-08T09:19:19.577Z,6066
2022-08-08T09:20:28.753Z,6054
2022-08-08T09:21:37.918Z,6149
2022-08-08T09:22:47.098Z,6019
2022-08-08T09:23:56.265Z,6404
2022-08-08T09:25:05.432Z,6399
2022-08-08T09:26:14.604Z,6506
2022-08-08T09:27:23.782Z,5871
2022-08-08T09:28:31.969Z,5959
2022-08-08T09:29:41.143Z,5937
2022-08-08T09:30:50.315Z,5905
2022-08-08T09:31:59.484Z,5946
2022-08-08T09:33:08.653Z,6053
2022-08-08T09:34:17.834Z,5856
2022-08-08T09:35:27.005Z,6026
2022-08-08T09:36:36.187Z,6075
2022-08-08T09:37:45.347Z,6061
2022-08-08T09:38:54.531Z,6078
2022-08-08T09:40:03.706Z,6014
2022-08-08T09:41:12.910Z,6050
2022-08-08T09:42:22.047Z,6092
2022-08-08T09:43:30.235Z,6121
2022-08-08T09:44:39.397Z,6706
2022-08-08T09:45:48.566Z,5689
2022-08-08T09:46:57.772Z,6061
2022-08-08T09:48:06.932Z,6215
2022-08-08T09:49:16.083Z,7663
2022-08-08T09:50:25.270Z,5980
2022-08-08T09:51:34.434Z,4643
2022-08-08T09:52:43.606Z,6348
2022-08-08T09:53:52.794Z,6344
2022-08-08T09:55:01.971Z,6300
2022-08-08T09:56:11.117Z,6371
2022-08-08T09:57:20.317Z,6354
2022-08-08T09:58:28.507Z,6453
2022-08-08T09:59:37.663Z,6486
2022-08-08T10:00:46.836Z,6218
2022-08-08T10:01:56.020Z,6466
2022-08-08T10:03:05.176Z,6505
2022-08-08T10:04:14.360Z,6526
2022-08-08T10:05:23.531Z,6566
2022-08-08T10:06:32.701Z,6522
2022-08-08T10:07:41.872Z,6553
2022-08-08T10:08:51.050Z,6616
2022-08-08T10:10:00.222Z,6682
2022-08-08T10:11:09.384Z,6738
2022-08-08T10:12:18.552Z,6727
2022-08-08T10:13:26.774Z,6815
2022-08-08T10:14:35.923Z,6854
2022-08-08T10:15:45.091Z,6833
2022-08-08T10:16:54.267Z,6869
2022-08-08T10:18:03.454Z,6787
2022-08-08T10:19:12.618Z,6685
2022-08-08T10:20:21.788Z,6829
2022-08-08T10:21:30.950Z,7061
2022-08-08T10:22:40.135Z,6736
2022-08-08T10:23:49.297Z,6504
2022-08-08T10:24:58.490Z,6860
2022-08-08T10:26:07.646Z,7145
2022-08-08T10:27:16.848Z,7204
2022-08-08T10:28:25.012Z,7179
2022-08-08T10:29:34.192Z,7154
2022-08-08T10:30:43.347Z,7376
2022-08-08T10:31:52.522Z,7545
2022-08-08T10:33:01.717Z,7632
2022-08-08T10:34:10.860Z,7876
2022-08-08T10:35:20.047Z,7739
2022-08-08T10:36:29.206Z,7693
2022-08-08T10:37:38.375Z,7810
2022-08-08T10:38:47.571Z,7969
2022-08-08T10:39:56.730Z,7934
2022-08-08T10:41:05.897Z,7994
2022-08-08T10:42:15.100Z,7986
2022-08-08T10:43:23.271Z,8146
2022-08-08T10:45:41.600Z,8672
2022-08-08T10:46:50.781Z,8651
2022-08-08T10:47:59.954Z,8636
2022-08-08T10:49:09.125Z,8427
2022-08-08T10:50:18.326Z,8193
2022-08-08T10:51:27.474Z,8277
2022-08-08T10:52:36.653Z,8397
2022-08-08T10:53:45.817Z,8493
2022-08-08T10:54:55.001Z,8349
2022-08-08T10:56:04.170Z,8314
2022-08-08T10:57:13.331Z,8498
2022-08-08T10:58:21.508Z,8536
2022-08-08T10:59:30.692Z,8472
2022-08-08T11:00:39.869Z,8529
2022-08-08T11:01:49.046Z,8432
2022-08-08T11:02:58.214Z,8421
2022-08-08T11:04:07.381Z,8454
2022-08-08T11:05:16.552Z,8602
2022-08-08T11:06:25.730Z,8111
2022-08-08T11:07:34.904Z,10949
2022-08-08T11:08:44.075Z,8802
2022-08-08T11:09:53.255Z,8912
2022-08-08T11:11:02.415Z,9640
2022-08-08T11:12:11.595Z,9483
2022-08-08T11:13:19.780Z,9522
2022-08-08T11:14:28.980Z,12392
2022-08-08T11:15:38.125Z,6344
2022-08-08T11:16:47.314Z,8874
2022-08-08T11:17:56.466Z,9206
2022-08-08T11:19:05.673Z,9922
2022-08-08T11:20:14.821Z,12612
2022-08-08T11:21:23.983Z,8864
2022-08-08T11:22:33.198Z,4289
2022-08-08T11:23:42.335Z,9342
2022-08-08T11:24:51.508Z,9437
2022-08-08T11:26:00.782Z,9944
2022-08-08T11:28:19.023Z,10064
2022-08-08T11:29:28.222Z,10096
2022-08-08T11:30:36.390Z,10337
2022-08-08T11:31:45.567Z,10395
2022-08-08T11:32:53.769Z,11395
2022-08-08T11:34:02.933Z,11811
2022-08-08T11:35:12.093Z,11884
2022-08-08T11:36:21.272Z,12008
2022-08-08T11:37:30.447Z,11117
2022-08-08T11:38:39.644Z,13889
2022-08-08T11:39:48.788Z,11570
2022-08-08T11:40:57.974Z,11555
2022-08-08T11:42:07.151Z,12146
2022-08-08T11:43:16.309Z,11584
2022-08-08T11:44:25.480Z,14229
2022-08-08T11:45:34.661Z,14056
2022-08-08T11:46:43.828Z,9585
2022-08-08T11:47:53.004Z,7318
2022-08-08T11:49:01.188Z,8274
2022-08-08T11:50:10.367Z,11664
2022-08-08T11:51:19.544Z,12267
2022-08-08T11:52:28.710Z,12654
2022-08-08T11:53:37.882Z,12718
2022-08-08T11:54:47.050Z,12138
2022-08-08T11:55:56.228Z,14874
2022-08-08T11:57:05.389Z,14391
2022-08-08T11:58:14.597Z,11557
2022-08-08T11:59:23.743Z,10357
2022-08-08T12:00:32.909Z,10085
2022-08-08T12:01:42.118Z,9588
2022-08-08T12:02:51.260Z,6305
2022-08-08T12:04:00.438Z,17563
2022-08-08T12:05:08.623Z,13758
2022-08-08T12:06:17.812Z,11254
2022-08-08T12:07:26.965Z,10908
2022-08-08T12:08:36.149Z,10983
2022-08-08T12:09:45.307Z,10738
2022-08-08T12:10:54.508Z,10983
2022-08-08T12:12:03.675Z,9898
2022-08-08T12:13:12.835Z,5569
2022-08-08T12:14:21.997Z,14847
2022-08-08T12:15:31.177Z,16090
2022-08-08T12:16:40.355Z,16833
2022-08-08T12:17:49.516Z,20275
2022-08-08T12:18:58.689Z,20847
2022-08-08T12:20:06.880Z,18552
2022-08-08T12:21:16.042Z,23703
2022-08-08T12:22:25.234Z,23457
2022-08-08T12:23:34.400Z,20538
2022-08-08T12:24:43.566Z,19674
2022-08-08T12:27:01.913Z,26140
2022-08-08T12:28:11.085Z,21571
2022-08-08T12:29:20.256Z,21115
2022-08-08T12:30:29.440Z,25682
2022-08-08T12:31:38.605Z,20923
2022-08-08T12:32:47.784Z,18681
2022-08-08T12:33:56.956Z,16885
2022-08-08T12:35:05.138Z,15797
2022-08-08T12:36:14.318Z,16912
2022-08-08T12:37:23.488Z,17644
2022-08-08T12:38:32.662Z,22243
2022-08-08T12:39:41.835Z,4845
2022-08-08T12:40:51.003Z,23533
2022-08-08T12:42:00.171Z,23490
2022-08-08T12:43:09.355Z,24398
2022-08-08T12:44:18.523Z,21061
2022-08-08T12:45:27.694Z,21371
2022-08-08T12:46:36.868Z,14032
2022-08-08T12:47:46.050Z,12841
2022-08-08T12:48:55.229Z,12861
2022-08-08T12:50:03.403Z,13237
2022-08-08T12:51:12.567Z,13146
2022-08-08T12:52:21.751Z,4547
2022-08-08T12:53:30.909Z,20530
2022-08-08T12:54:40.120Z,22196
2022-08-08T12:55:49.270Z,23628
2022-08-08T12:56:58.447Z,24889
2022-08-08T12:58:07.610Z,13190
2022-08-08T12:59:16.780Z,25352
2022-08-08T13:00:25.955Z,26304
2022-08-08T13:01:35.131Z,23909
2022-08-08T13:02:44.304Z,26434
2022-08-08T13:03:53.486Z,25188
2022-08-08T13:05:01.653Z,28207
2022-08-08T13:06:10.837Z,35340
2022-08-08T13:07:19.033Z,39250
2022-08-08T13:08:27.214Z,37703
2022-08-08T13:09:36.397Z,29613
2022-08-08T13:10:45.555Z,31251
2022-08-08T13:13:03.909Z,30088
2022-08-08T13:14:13.083Z,35418
2022-08-08T13:15:22.279Z,12373
2022-08-08T13:16:31.463Z,235
2022-08-08T13:17:40.602Z,40506
2022-08-08T13:18:49.777Z,28810
2022-08-08T13:19:58.960Z,25165
2022-08-08T13:21:08.126Z,25608
2022-08-08T13:22:17.290Z,24105
2022-08-08T13:23:26.463Z,23198
2022-08-08T13:24:34.653Z,23761
2022-08-08T13:25:43.819Z,23437
2022-08-08T13:26:53.000Z,23893
2022-08-08T13:28:02.174Z,21886
2022-08-08T13:29:10.377Z,21308
2022-08-08T13:30:18.547Z,17739
2022-08-08T13:31:27.722Z,10665
2022-08-08T13:32:36.895Z,59417
2022-08-08T13:33:46.095Z,55210
2022-08-08T13:34:55.264Z,64161
2022-08-08T13:36:04.442Z,4265
2022-08-08T13:37:13.591Z,57865
2022-08-08T13:38:22.788Z,2335
2022-08-08T13:39:31.955Z,59791
2022-08-08T13:40:41.112Z,18515
2022-08-08T13:41:50.282Z,53662
2022-08-08T13:42:59.465Z,2440
2022-08-08T13:44:08.628Z,15968
2022-08-08T13:45:16.829Z,19306
2022-08-08T13:46:25.998Z,23554
2022-08-08T13:47:35.181Z,13366
2022-08-08T13:48:44.336Z,3425
2022-08-08T13:49:53.512Z,263
2022-08-08T13:51:02.678Z,14659
2022-08-08T13:52:11.864Z,60812
2022-08-08T13:53:20.048Z,17634
2022-08-08T13:54:28.243Z,22962
2022-08-08T13:55:37.421Z,21557
2022-08-08T13:56:46.573Z,15986
2022-08-08T13:57:55.766Z,16802
2022-08-08T13:59:03.940Z,22338
2022-08-08T14:00:12.161Z,22152
2022-08-08T14:01:21.308Z,19984
2022-08-08T14:02:30.491Z,22023
2022-08-08T14:03:39.649Z,21331
2022-08-08T14:04:48.823Z,17537
2022-08-08T14:05:58.010Z,28331
2022-08-08T14:07:07.176Z,21798
2022-08-08T14:08:16.356Z,20942
2022-08-08T14:09:25.537Z,18143
2022-08-08T14:10:34.693Z,54193
2022-08-08T14:11:43.858Z,24115
2022-08-08T14:12:53.044Z,21440
2022-08-08T14:14:02.205Z,19009
2022-08-08T14:15:10.394Z,7101
2022-08-08T14:16:19.581Z,27751
2022-08-08T14:17:28.735Z,21989
2022-08-08T14:18:37.917Z,62371
2022-08-08T14:19:47.098Z,14183
2022-08-08T14:20:56.283Z,53784
2022-08-08T14:22:05.427Z,6698
2022-08-08T14:23:14.605Z,37789
2022-08-08T14:24:23.786Z,17953
2022-08-08T14:25:32.952Z,19213
2022-08-08T14:26:42.128Z,21592
2022-08-08T14:27:51.317Z,6593
2022-08-08T14:29:00.483Z,34817
2022-08-08T14:30:08.667Z,20257
2022-08-08T14:31:17.845Z,18585
2022-08-08T14:32:27.004Z,18167
2022-08-08T14:33:36.179Z,10020
2022-08-08T14:34:45.354Z,31041
2022-08-08T14:35:54.521Z,55118
2022-08-08T14:37:03.700Z,27640
2022-08-08T14:38:12.870Z,20447
2022-08-08T14:39:22.053Z,11412
2022-08-08T14:40:31.220Z,27760
2022-08-08T14:41:40.394Z,26380
2022-08-08T14:42:49.557Z,26709
2022-08-08T14:43:58.737Z,25790
2022-08-08T14:45:06.931Z,27640
2022-08-08T14:46:16.106Z,33861
2022-08-08T14:47:25.266Z,31099
2022-08-08T14:48:34.476Z,21793
2022-08-08T14:49:43.615Z,29213
2022-08-08T14:50:52.786Z,27016
2022-08-08T14:52:01.958Z,29264
2022-08-08T14:53:11.151Z,35961
2022-08-08T14:54:20.310Z,28215
2022-08-08T14:55:29.473Z,25858
2022-08-08T14:56:38.648Z,29745
2022-08-08T14:57:47.818Z,29648
2022-08-08T14:58:57.015Z,28325
2022-08-08T15:00:05.178Z,31141
2022-08-08T15:01:14.350Z,29953
2022-08-08T15:02:23.533Z,30046
2022-08-08T15:03:32.706Z,31880
2022-08-08T15:04:41.878Z,30521
2022-08-08T15:05:51.055Z,29763
2022-08-08T15:07:00.227Z,34269
2022-08-08T15:08:08.414Z,33822
2022-08-08T15:09:16.606Z,29295
2022-08-08T15:10:25.774Z,26258
2022-08-08T15:11:34.950Z,28508
2022-08-08T15:12:44.121Z,28118
2022-08-08T15:13:53.294Z,28116
2022-08-08T15:15:01.505Z,32364
2022-08-08T15:16:09.682Z,33096
2022-08-08T15:17:18.858Z,26985
2022-08-08T15:18:28.024Z,31972
2022-08-08T15:19:37.191Z,33217
2022-08-08T15:20:46.379Z,26622
2022-08-08T15:21:55.541Z,23136
2022-08-08T15:23:04.717Z,26525
2022-08-08T15:24:12.902Z,34362
2022-08-08T15:25:22.083Z,30301
2022-08-08T15:26:31.267Z,26849
2022-08-08T15:27:40.422Z,30996
2022-08-08T15:28:49.599Z,33105
2022-08-08T15:29:58.778Z,33047
2022-08-08T15:31:07.946Z,34376
2022-08-08T15:32:17.120Z,35035
2022-08-08T15:33:26.303Z,32259
2022-08-08T15:34:35.459Z,26754
2022-08-08T15:35:44.633Z,30669
2022-08-08T15:36:53.811Z,34740
2022-08-08T15:38:03.000Z,34826
2022-08-08T15:39:11.178Z,34969
2022-08-08T15:40:19.374Z,29783
2022-08-08T15:41:28.544Z,35996
2022-08-08T15:42:37.737Z,32000
2022-08-08T15:43:46.897Z,31090
2022-08-08T15:44:56.054Z,32658
2022-08-08T15:46:05.243Z,30513
2022-08-08T15:47:14.398Z,22586
2022-08-08T15:48:22.601Z,21766
2022-08-08T15:49:30.798Z,29571